KAWM/AWM METAR and TAF weather

Enter ICAO airport designator
Station Type Date Time Source
KAWM METAR 2021/05/14 21:53 UTC NOAA

KAWM 142153Z AUTO 00000KT 10SM CLR 23/02 A3021 RMK AO2 SLP227 T02330022 $


Station Type Date Time Source
KAWM Decoded METAR 2021/05/14 21:53 UTC NOAA

WEST MEMPHIS MUNICIPAL AIRPORT, AR, United States (KAWM) 35-08N 090-14W
May 14, 2021 - 05:53 PM EDT / 2021.05.14 2153 UTC
Wind: Calm:0
Visibility: 10 mile(s):0
Sky conditions: clear
Temperature: 73.9 F (23.3 C)
Dew Point: 36.0 F (2.2 C)
Relative Humidity: 25%
Pressure (altimeter): 30.21 in. Hg (1023 hPa)
ob: KAWM 142153Z AUTO 00000KT 10SM CLR 23/02 A3021 RMK AO2 SLP227 T02330022
cycle: 22

Station Type Date Time Source
KAWM TAF UTC NOAA

Error!

Example: see airport list